createdAt,value
2022-09-15T00:01:32.799Z,65.55
2022-09-15T00:04:36.209Z,66.02
2022-09-15T00:07:38.976Z,68.61
2022-09-15T00:10:53.591Z,71.84
2022-09-15T00:13:58.392Z,73.70
2022-09-15T00:17:00.783Z,74.36
2022-09-15T00:23:27.907Z,75.77
2022-09-15T00:26:31.739Z,76.17
2022-09-15T00:29:34.451Z,76.60
2022-09-15T00:32:36.493Z,76.76
2022-09-15T00:35:51.246Z,76.74
2022-09-15T00:38:55.404Z,76.46
2022-09-15T00:41:58.039Z,76.29
2022-09-15T00:45:03.682Z,75.99
2022-09-15T00:48:08.883Z,76.07
2022-09-15T00:51:14.355Z,75.96
2022-09-15T00:54:20.669Z,75.66
2022-09-15T00:57:35.387Z,75.21
2022-09-15T01:00:44.442Z,75.72
2022-09-15T01:03:46.955Z,76.16
2022-09-15T01:06:55.700Z,75.95
2022-09-15T01:10:01.149Z,76.41
2022-09-15T01:13:07.515Z,76.23
2022-09-15T01:16:31.645Z,75.34
2022-09-15T01:20:12.200Z,74.61
2022-09-15T01:23:42.399Z,75.18
2022-09-15T01:26:57.319Z,76.20
2022-09-15T01:30:16.261Z,76.30
2022-09-15T01:33:31.247Z,75.85
2022-09-15T01:36:45.491Z,75.19
2022-09-15T01:39:51.186Z,75.33
2022-09-15T01:42:54.541Z,75.62
2022-09-15T01:45:58.932Z,75.32
2022-09-15T01:49:03.659Z,75.25
2022-09-15T01:52:06.902Z,75.15
2022-09-15T01:55:17.204Z,74.91
2022-09-15T01:58:20.235Z,74.61
2022-09-15T02:01:36.963Z,75.32
2022-09-15T02:04:54.110Z,75.67
2022-09-15T02:08:10.039Z,74.46
2022-09-15T02:11:18.831Z,74.68
2022-09-15T02:14:48.315Z,75.04
2022-09-15T02:17:55.694Z,75.19
2022-09-15T02:21:10.777Z,75.18
2022-09-15T02:24:20.259Z,74.96
2022-09-15T02:27:25.416Z,74.54
2022-09-15T02:30:29.781Z,73.97
2022-09-15T02:33:41.137Z,72.48
2022-09-15T02:36:45.748Z,74.22
2022-09-15T02:39:53.727Z,74.30
2022-09-15T02:43:05.574Z,73.04
2022-09-15T02:46:08.396Z,73.70
2022-09-15T02:49:11.165Z,74.33
2022-09-15T02:52:14.863Z,75.54
2022-09-15T02:55:17.057Z,73.68
2022-09-15T02:58:19.382Z,73.49
2022-09-15T03:01:31.995Z,72.83
2022-09-15T03:04:34.173Z,72.89
2022-09-15T03:07:38.285Z,72.51
2022-09-15T03:10:40.695Z,72.90
2022-09-15T03:13:43.378Z,72.16
2022-09-15T03:16:45.615Z,72.05
2022-09-15T03:19:48.047Z,73.19
2022-09-15T03:22:51.203Z,72.11
2022-09-15T03:25:53.778Z,70.89
2022-09-15T03:28:55.913Z,70.67
2022-09-15T03:31:58.573Z,71.08
2022-09-15T03:35:01.025Z,71.32
2022-09-15T03:38:03.701Z,70.42
2022-09-15T03:41:11.649Z,70.59
2022-09-15T03:44:13.979Z,71.07
2022-09-15T03:47:16.647Z,71.70
2022-09-15T03:50:19.075Z,71.56
2022-09-15T03:53:21.597Z,71.06
2022-09-15T03:56:32.845Z,71.65
2022-09-15T03:59:35.077Z,74.81
2022-09-15T04:02:37.600Z,72.10
2022-09-15T04:05:40.283Z,70.72
2022-09-15T04:08:43.252Z,69.51
2022-09-15T04:11:45.314Z,68.57
2022-09-15T04:14:47.916Z,68.22
2022-09-15T04:17:49.918Z,67.54
2022-09-15T04:20:52.384Z,67.48
2022-09-15T04:23:55.080Z,67.21
2022-09-15T04:26:57.363Z,67.81
2022-09-15T04:29:59.484Z,68.10
2022-09-15T04:33:03.384Z,62.82
2022-09-15T04:36:08.375Z,63.67
2022-09-15T04:39:10.921Z,66.03
2022-09-15T04:42:12.933Z,68.15
2022-09-15T04:45:15.407Z,68.71
2022-09-15T04:48:18.094Z,69.83
2022-09-15T04:51:22.549Z,70.88
2022-09-15T04:54:24.844Z,71.35
2022-09-15T04:57:27.246Z,72.15
2022-09-15T05:00:30.480Z,72.52
2022-09-15T05:03:36.551Z,73.74
2022-09-15T05:06:39.090Z,73.09
2022-09-15T05:09:41.451Z,70.38
2022-09-15T05:12:43.890Z,69.04
2022-09-15T05:15:46.349Z,68.56
2022-09-15T05:18:50.413Z,69.12
2022-09-15T05:21:52.833Z,68.96
2022-09-15T05:24:54.932Z,68.76
2022-09-15T05:27:57.859Z,68.59
2022-09-15T05:31:00.459Z,68.19
2022-09-15T05:34:05.751Z,67.39
2022-09-15T05:37:07.975Z,66.62
2022-09-15T05:40:10.968Z,66.18
2022-09-15T05:43:13.650Z,66.19
2022-09-15T05:46:17.607Z,66.10
2022-09-15T05:49:20.308Z,61.38
2022-09-15T05:52:23.192Z,67.86
2022-09-15T05:55:25.299Z,71.67
2022-09-15T05:58:28.183Z,74.38
2022-09-15T06:01:31.448Z,75.54
2022-09-15T06:04:35.146Z,75.77
2022-09-15T06:07:37.728Z,74.93
2022-09-15T06:10:40.293Z,75.25
2022-09-15T06:13:43.738Z,75.35
2022-09-15T06:16:46.491Z,75.73
2022-09-15T06:19:49.099Z,75.80
2022-09-15T06:22:52.851Z,76.38
2022-09-15T06:25:56.705Z,76.13
2022-09-15T06:29:02.326Z,75.96
2022-09-15T06:32:07.581Z,76.03
2022-09-15T06:35:10.843Z,75.90
2022-09-15T06:38:13.813Z,76.12
2022-09-15T06:41:17.032Z,76.34
2022-09-15T06:44:20.123Z,76.28
2022-09-15T06:47:22.791Z,75.50
2022-09-15T06:50:25.644Z,76.01
2022-09-15T06:53:30.460Z,75.43
2022-09-15T06:56:37.883Z,76.07
2022-09-15T06:59:41.720Z,75.47
2022-09-15T07:02:45.310Z,74.54
2022-09-15T07:05:48.121Z,74.26
2022-09-15T07:08:51.170Z,73.76
2022-09-15T07:11:54.271Z,73.64
2022-09-15T07:14:56.653Z,73.37
2022-09-15T07:17:59.643Z,72.51
2022-09-15T07:21:07.612Z,71.77
2022-09-15T07:24:11.247Z,71.46
2022-09-15T07:27:14.336Z,71.78
2022-09-15T07:30:16.813Z,71.27
2022-09-15T07:33:19.265Z,72.31
2022-09-15T07:36:22.250Z,71.64
2022-09-15T07:39:24.736Z,72.30
2022-09-15T07:42:28.627Z,72.24
2022-09-15T07:45:33.898Z,71.94
2022-09-15T07:48:36.250Z,71.81
2022-09-15T07:51:39.331Z,70.73
2022-09-15T07:55:35.446Z,71.81
2022-09-15T07:58:40.515Z,71.71
2022-09-15T08:02:28.435Z,69.44
2022-09-15T08:05:32.929Z,68.96
2022-09-15T08:08:40.553Z,69.29
2022-09-15T08:11:43.619Z,69.89
2022-09-15T08:14:47.547Z,69.72
2022-09-15T08:17:51.916Z,68.58
2022-09-15T08:20:56.092Z,69.41
2022-09-15T08:24:01.599Z,70.34
2022-09-15T08:27:04.689Z,70.28
2022-09-15T08:30:08.607Z,70.17
2022-09-15T08:33:12.935Z,69.98
2022-09-15T08:36:15.959Z,70.05
2022-09-15T08:39:19.000Z,72.28
2022-09-15T08:42:24.233Z,71.86
2022-09-15T08:45:31.412Z,73.01
2022-09-15T08:48:42.051Z,70.70
2022-09-15T08:51:49.547Z,68.29
2022-09-15T08:54:58.348Z,68.45
2022-09-15T08:58:01.591Z,67.61
2022-09-15T09:01:14.395Z,66.31
2022-09-15T09:04:22.736Z,67.50
2022-09-15T09:07:52.953Z,66.94
2022-09-15T09:11:08.517Z,70.04
2022-09-15T09:14:46.671Z,65.27
2022-09-15T09:18:05.197Z,68.18
2022-09-15T09:21:14.205Z,66.04
2022-09-15T09:24:40.662Z,67.50
2022-09-15T09:27:43.943Z,65.76
2022-09-15T09:30:48.693Z,63.69
2022-09-15T09:33:54.373Z,64.89
2022-09-15T09:37:09.111Z,63.67
2022-09-15T09:40:17.440Z,61.70
2022-09-15T09:43:20.335Z,62.85
2022-09-15T09:46:22.971Z,59.86
2022-09-15T09:49:28.436Z,60.42
2022-09-15T09:52:37.260Z,59.70
2022-09-15T09:55:42.598Z,59.64
2022-09-15T09:58:44.941Z,59.26
2022-09-15T10:02:06.367Z,60.93
2022-09-15T10:05:09.034Z,62.22
2022-09-15T10:08:20.329Z,60.04
2022-09-15T10:11:38.671Z,61.24
2022-09-15T10:14:42.443Z,60.33
2022-09-15T10:17:48.008Z,60.48
2022-09-15T10:20:52.190Z,60.45
2022-09-15T10:23:55.851Z,60.43
2022-09-15T10:27:16.092Z,59.95
2022-09-15T10:30:19.413Z,59.24
2022-09-15T10:33:30.429Z,55.55
2022-09-15T10:36:32.883Z,56.70
2022-09-15T10:39:53.419Z,56.92
2022-09-15T10:43:12.346Z,56.19
2022-09-15T10:46:28.730Z,56.16
2022-09-15T10:49:59.440Z,55.63
2022-09-15T10:53:31.113Z,51.89
2022-09-15T10:56:41.623Z,50.93
2022-09-15T11:00:08.886Z,52.08
2022-09-15T11:03:24.476Z,52.55
2022-09-15T11:06:42.429Z,54.34
2022-09-15T11:09:55.427Z,53.95
2022-09-15T11:13:08.354Z,53.49
2022-09-15T11:16:16.605Z,55.40
2022-09-15T11:19:31.045Z,58.36
2022-09-15T11:22:44.079Z,61.14
2022-09-15T11:26:04.411Z,60.68
2022-09-15T11:29:18.147Z,61.50
2022-09-15T11:32:42.819Z,61.09
2022-09-15T11:35:47.328Z,60.34
2022-09-15T11:38:54.182Z,61.53
2022-09-15T11:42:05.890Z,61.42
2022-09-15T11:45:19.344Z,61.16
2022-09-15T11:48:37.419Z,61.26
2022-09-15T11:51:48.027Z,61.27
2022-09-15T11:55:23.887Z,60.29
2022-09-15T11:58:35.192Z,59.71
2022-09-15T12:01:51.515Z,60.23
2022-09-15T12:05:12.395Z,59.55
2022-09-15T12:08:17.216Z,59.02
2022-09-15T12:11:26.469Z,59.61
2022-09-15T12:14:46.878Z,60.06
2022-09-15T12:18:34.382Z,59.65
2022-09-15T12:21:54.209Z,59.53
2022-09-15T12:25:00.733Z,58.83
2022-09-15T12:31:41.155Z,58.42
2022-09-15T12:34:59.797Z,57.04
2022-09-15T12:38:04.081Z,56.54
2022-09-15T12:41:11.811Z,55.56
2022-09-15T12:44:32.453Z,56.54
2022-09-15T12:47:41.839Z,55.75
2022-09-15T12:51:03.553Z,57.16
2022-09-15T12:54:09.187Z,58.26
2022-09-15T12:57:29.565Z,60.09
2022-09-15T13:01:00.628Z,59.69
2022-09-15T13:04:05.426Z,59.09
2022-09-15T13:07:18.586Z,58.80
2022-09-15T13:10:35.903Z,59.52
2022-09-15T13:13:48.299Z,60.64
2022-09-15T13:16:59.745Z,60.67
2022-09-15T13:20:10.169Z,61.34
2022-09-15T13:23:15.176Z,62.33
2022-09-15T13:26:23.126Z,62.06
2022-09-15T13:29:29.234Z,58.68
2022-09-15T13:32:56.368Z,60.67
2022-09-15T13:38:03.898Z,60.92
2022-09-15T13:40:34.141Z,59.69
2022-09-15T13:44:06.390Z,60.68
2022-09-15T13:47:34.883Z,59.14
2022-09-15T13:50:43.303Z,61.41
2022-09-15T13:53:59.926Z,64.18
2022-09-15T13:57:03.177Z,64.06
2022-09-15T14:00:11.283Z,63.10
2022-09-15T14:03:43.729Z,65.47
2022-09-15T14:06:48.961Z,67.52
2022-09-15T14:09:52.743Z,66.99
2022-09-15T14:13:00.149Z,65.53
2022-09-15T14:16:34.447Z,64.96
2022-09-15T14:19:38.919Z,64.62
2022-09-15T14:22:41.748Z,63.86
2022-09-15T14:25:49.652Z,62.78
2022-09-15T14:28:59.995Z,63.26
2022-09-15T14:32:04.825Z,63.80
2022-09-15T14:35:19.738Z,64.54
2022-09-15T14:38:25.175Z,64.79
2022-09-15T14:41:38.898Z,65.41
2022-09-15T14:48:17.146Z,65.09
2022-09-15T14:51:33.919Z,64.92
2022-09-15T14:54:38.441Z,64.74
2022-09-15T14:57:47.634Z,64.42
2022-09-15T15:00:55.517Z,64.96
2022-09-15T15:04:20.578Z,65.31
2022-09-15T15:07:31.263Z,65.69
2022-09-15T15:10:36.004Z,64.85
2022-09-15T15:13:42.765Z,65.60
2022-09-15T15:17:01.040Z,69.04
2022-09-15T15:20:06.471Z,66.47
2022-09-15T15:23:24.314Z,64.65
2022-09-15T15:26:36.079Z,62.42
2022-09-15T15:29:40.630Z,60.21
2022-09-15T15:32:43.643Z,59.98
2022-09-15T15:35:46.670Z,60.50
2022-09-15T15:38:56.906Z,62.40
2022-09-15T15:42:02.933Z,64.45
2022-09-15T15:45:09.827Z,65.06
2022-09-15T15:48:12.759Z,66.63
2022-09-15T15:51:15.899Z,66.83
2022-09-15T15:54:20.244Z,66.29
2022-09-15T15:57:25.762Z,71.59
2022-09-15T16:00:44.479Z,69.74
2022-09-15T16:03:48.103Z,68.35
2022-09-15T16:06:51.474Z,70.31
2022-09-15T16:09:55.450Z,71.13
2022-09-15T16:12:58.222Z,71.35
2022-09-15T16:16:01.726Z,69.44
2022-09-15T16:19:05.174Z,70.72
2022-09-15T16:22:11.012Z,72.39
2022-09-15T16:25:18.240Z,72.28
2022-09-15T16:28:21.560Z,73.58
2022-09-15T16:31:24.734Z,72.92
2022-09-15T16:34:27.690Z,72.07
2022-09-15T16:37:30.275Z,72.78
2022-09-15T16:40:32.973Z,72.58
2022-09-15T16:43:35.039Z,73.16
2022-09-15T16:46:37.648Z,73.63
2022-09-15T16:49:40.120Z,74.05
2022-09-15T16:52:43.224Z,74.08
2022-09-15T16:55:53.483Z,74.27
2022-09-15T16:59:00.552Z,74.21
2022-09-15T17:02:04.248Z,74.41
2022-09-15T17:05:21.547Z,74.28
2022-09-15T17:08:32.841Z,74.73
2022-09-15T17:11:37.260Z,74.01
2022-09-15T17:14:39.515Z,74.03
2022-09-15T17:17:42.191Z,74.21
2022-09-15T17:20:45.984Z,77.34
2022-09-15T17:23:49.812Z,82.06
2022-09-15T17:26:52.604Z,83.68
2022-09-15T17:29:56.008Z,83.17
2022-09-15T17:33:11.659Z,83.02
2022-09-15T17:36:15.142Z,82.72
2022-09-15T17:39:17.790Z,82.42
2022-09-15T17:42:21.325Z,82.22
2022-09-15T17:45:35.237Z,82.01
2022-09-15T17:48:39.538Z,81.40
2022-09-15T17:51:41.642Z,81.50
2022-09-15T17:54:44.542Z,77.72
2022-09-15T17:57:48.872Z,72.51
2022-09-15T18:00:52.563Z,69.05
2022-09-15T18:03:55.003Z,67.94
2022-09-15T18:06:59.319Z,67.72
2022-09-15T18:10:02.607Z,68.20
2022-09-15T18:13:06.566Z,65.85
2022-09-15T18:16:13.292Z,65.22
2022-09-15T18:19:17.030Z,63.88
2022-09-15T18:22:22.123Z,63.59
2022-09-15T18:25:36.893Z,65.90
2022-09-15T18:28:38.880Z,65.35
2022-09-15T18:31:41.492Z,64.52
2022-09-15T18:34:45.210Z,66.16
2022-09-15T18:37:54.203Z,67.72
2022-09-15T18:40:57.240Z,66.59
2022-09-15T18:44:00.723Z,68.12
2022-09-15T18:47:02.981Z,69.39
2022-09-15T18:50:07.166Z,70.00
2022-09-15T18:53:10.175Z,68.49
2022-09-15T18:56:14.779Z,69.56
2022-09-15T18:59:17.886Z,68.53
2022-09-15T19:02:20.426Z,67.17
2022-09-15T19:05:24.181Z,66.39
2022-09-15T19:08:26.811Z,64.75
2022-09-15T19:11:30.104Z,66.80
2022-09-15T19:14:33.959Z,67.61
2022-09-15T19:17:37.503Z,68.35
2022-09-15T19:20:41.822Z,72.83
2022-09-15T19:23:46.634Z,75.88
2022-09-15T19:26:49.687Z,77.76
2022-09-15T19:29:52.234Z,78.46
2022-09-15T19:32:56.281Z,77.40
2022-09-15T19:36:26.819Z,75.63
2022-09-15T19:39:33.847Z,73.22
2022-09-15T19:42:38.418Z,71.49
2022-09-15T19:45:43.590Z,75.47
2022-09-15T19:48:49.343Z,80.23
2022-09-15T19:51:55.763Z,83.14
2022-09-15T19:55:01.293Z,83.46
2022-09-15T19:58:07.658Z,83.33
2022-09-15T20:01:11.737Z,83.43
2022-09-15T20:04:17.852Z,83.61
2022-09-15T20:07:23.238Z,83.18
2022-09-15T20:10:29.026Z,82.46
2022-09-15T20:13:35.429Z,82.29
2022-09-15T20:16:40.749Z,75.32
2022-09-15T20:19:46.254Z,71.43
2022-09-15T20:22:50.341Z,68.28
2022-09-15T20:26:06.343Z,66.83
2022-09-15T20:29:11.970Z,65.92
2022-09-15T20:32:16.667Z,65.19
2022-09-15T20:35:22.455Z,64.88
2022-09-15T20:38:29.582Z,64.50
2022-09-15T20:41:35.932Z,64.35
2022-09-15T20:44:41.090Z,64.23
2022-09-15T20:47:45.281Z,64.08
2022-09-15T20:50:50.391Z,64.34
2022-09-15T20:53:57.152Z,64.54
2022-09-15T20:57:00.671Z,63.78
2022-09-15T21:00:08.258Z,63.31
2022-09-15T21:03:13.232Z,63.05
2022-09-15T21:06:20.707Z,62.90
2022-09-15T21:09:23.783Z,62.64
2022-09-15T21:12:26.333Z,62.66
2022-09-15T21:15:30.212Z,62.77
2022-09-15T21:18:36.427Z,61.44
2022-09-15T21:21:39.769Z,62.54
2022-09-15T21:24:42.405Z,63.46
2022-09-15T21:27:46.860Z,65.42
2022-09-15T21:30:49.920Z,69.07
2022-09-15T21:33:53.886Z,71.25
2022-09-15T21:36:59.521Z,72.18
2022-09-15T21:40:02.486Z,72.99
2022-09-15T21:43:05.080Z,73.52
2022-09-15T21:46:12.123Z,74.34
2022-09-15T21:49:19.837Z,74.30
2022-09-15T21:52:22.860Z,74.07
2022-09-15T21:55:26.123Z,73.17
2022-09-15T21:58:41.741Z,72.56
2022-09-15T22:01:45.719Z,72.78
2022-09-15T22:04:48.673Z,73.72
2022-09-15T22:07:51.248Z,71.48
2022-09-15T22:10:59.993Z,73.22
2022-09-15T22:14:04.434Z,73.44
2022-09-15T22:17:06.565Z,70.74
2022-09-15T22:20:09.919Z,73.13
2022-09-15T22:23:12.172Z,73.83
2022-09-15T22:26:17.509Z,72.78
2022-09-15T22:29:19.704Z,67.64
2022-09-15T22:32:22.397Z,64.69
2022-09-15T22:35:25.398Z,63.23
2022-09-15T22:38:30.281Z,62.84
2022-09-15T22:41:35.108Z,67.83
2022-09-15T22:44:37.603Z,71.14
2022-09-15T22:47:39.807Z,75.83
2022-09-15T22:50:46.671Z,78.42
2022-09-15T22:53:54.944Z,80.90
2022-09-15T22:56:58.291Z,82.00
2022-09-15T23:00:01.859Z,82.37
2022-09-15T23:03:05.200Z,82.60
2022-09-15T23:06:09.454Z,83.24
2022-09-15T23:09:12.619Z,82.12
2022-09-15T23:12:14.951Z,80.79
2022-09-15T23:15:19.170Z,79.33
2022-09-15T23:18:21.810Z,79.93
2022-09-15T23:21:24.857Z,75.65
2022-09-15T23:24:26.943Z,75.20
2022-09-15T23:27:30.219Z,69.64
2022-09-15T23:30:32.304Z,66.34
2022-09-15T23:33:34.912Z,65.22
2022-09-15T23:36:38.029Z,64.36
2022-09-15T23:39:40.611Z,63.51
2022-09-15T23:42:42.885Z,63.26
2022-09-15T23:45:47.425Z,63.03
2022-09-15T23:48:49.578Z,62.68
2022-09-15T23:51:52.393Z,62.39
2022-09-15T23:54:54.624Z,62.47
2022-09-15T23:57:57.359Z,62.47
